Time;durP1;ratioP1;P1;durP2;ratioP2;P2;SDS_P1;SDS_P2;PMS_P1;PMS_P2;Temp;Humidity;BMP_temperature;BMP_pressure;BME280_temperature;BME280_humidity;BME280_pressure;Samples;Min_cycle;Max_cycle;Signal;HPM_P1;HPM_P2
2023/10/27 00:05:01;;;;;;;7.30;5.90;;;;;;;9.92;97.68;97801.45;218549;1257;140381;-71
2023/10/27 00:10:07;;;;;;;19.30;7.20;;;;;;;9.94;97.61;97802.71;219837;1261;141057;-71
2023/10/27 00:15:11;;;;;;;9.90;6.00;;;;;;;9.93;97.27;97793.03;219762;1257;140692;-71
2023/10/27 00:20:16;;;;;;;8.40;6.70;;;;;;;9.93;97.14;97794.73;217771;1260;140653;-73
2023/10/27 00:25:21;;;;;;;9.80;6.40;;;;;;;9.91;97.05;97790.17;218138;1258;140786;-73
2023/10/27 00:30:26;;;;;;;8.10;6.70;;;;;;;9.90;96.87;97783.00;219413;1257;140368;-72
2023/10/27 00:35:31;;;;;;;6.40;5.40;;;;;;;9.88;96.86;97779.45;217420;1260;140076;-72
2023/10/27 00:40:36;;;;;;;6.90;5.80;;;;;;;9.83;96.57;97774.95;217309;1262;140292;-72
2023/10/27 00:45:40;;;;;;;9.70;5.80;;;;;;;9.78;96.70;97787.23;217872;1261;139713;-71
2023/10/27 00:50:45;;;;;;;9.40;6.60;;;;;;;9.74;96.91;97793.61;217767;1258;139998;-70
2023/10/27 00:55:50;;;;;;;6.50;5.60;;;;;;;9.74;96.96;97784.56;217212;1262;139756;-69
2023/10/27 01:01:00;;;;;;;8.30;5.90;;;;;;;9.72;96.81;97776.38;217384;1262;141082;-70
2023/10/27 01:06:05;;;;;;;6.50;5.10;;;;;;;9.70;96.79;97764.69;218796;1257;140033;-70
2023/10/27 01:11:09;;;;;;;9.10;6.90;;;;;;;9.65;96.54;97758.70;217991;1261;140860;-69
2023/10/27 01:16:15;;;;;;;7.70;5.70;;;;;;;9.63;96.54;97743.60;217362;1262;140105;-69
2023/10/27 01:21:19;;;;;;;8.10;5.70;;;;;;;9.60;96.80;97742.92;218708;1262;139703;-71
2023/10/27 01:26:23;;;;;;;11.30;5.40;;;;;;;9.57;96.73;97742.73;218269;1262;139854;-74
2023/10/27 01:31:28;;;;;;;8.40;6.20;;;;;;;9.54;96.55;97741.84;217372;1262;139943;-73
2023/10/27 01:36:34;;;;;;;6.20;5.40;;;;;;;9.47;96.15;97757.75;218669;1259;139711;-71
2023/10/27 01:41:38;;;;;;;7.30;5.70;;;;;;;9.37;95.73;97756.11;218890;1261;139694;-73
2023/10/27 01:46:43;;;;;;;7.20;5.60;;;;;;;9.27;95.90;97752.97;218621;1258;141857;-73
2023/10/27 01:51:48;;;;;;;7.60;5.30;;;;;;;9.20;95.80;97753.80;220152;1257;140017;-73
2023/10/27 01:56:51;;;;;;;8.80;6.90;;;;;;;9.13;96.01;97756.25;219270;1260;140172;-72
2023/10/27 02:01:55;;;;;;;5.40;4.20;;;;;;;9.12;96.27;97747.00;218954;1257;141087;-70
2023/10/27 02:07:00;;;;;;;11.50;6.10;;;;;;;9.09;96.22;97752.17;218380;1260;140051;-70
2023/10/27 02:12:07;;;;;;;8.80;5.70;;;;;;;9.13;96.69;97754.17;219246;1258;140884;-70
2023/10/27 02:17:12;;;;;;;6.70;5.90;;;;;;;9.13;96.60;97743.17;217635;1263;248784;-69
2023/10/27 02:22:18;;;;;;;10.40;6.30;;;;;;;9.08;96.40;97731.17;218498;1257;140036;-70
2023/10/27 02:27:23;;;;;;;7.60;6.40;;;;;;;9.01;96.02;97731.10;217485;1262;139929;-72
2023/10/27 02:32:29;;;;;;;9.00;6.10;;;;;;;8.90;95.78;97724.39;218305;1260;140072;-71
2023/10/27 02:37:32;;;;;;;7.40;6.20;;;;;;;8.79;95.80;97724.45;217367;1261;140008;-71
2023/10/27 02:42:38;;;;;;;9.90;6.10;;;;;;;8.67;95.57;97729.85;218589;1257;140065;-74
2023/10/27 02:47:44;;;;;;;9.40;7.20;;;;;;;8.61;96.32;97724.23;217588;1261;140733;-73
2023/10/27 02:52:49;;;;;;;8.80;6.60;;;;;;;8.65;97.02;97724.13;217924;1257;139880;-75
2023/10/27 02:57:53;;;;;;;8.60;6.60;;;;;;;8.69;97.20;97717.78;217621;1257;140496;-74
2023/10/27 03:02:58;;;;;;;10.70;7.60;;;;;;;8.74;97.46;97712.56;218169;1257;141516;-74
2023/10/27 03:08:03;;;;;;;11.40;8.50;;;;;;;8.74;97.35;97706.30;217558;1262;140788;-71
2023/10/27 03:13:08;;;;;;;9.90;6.60;;;;;;;8.70;97.28;97699.41;218298;1262;140000;-75
2023/10/27 03:18:13;;;;;;;9.70;8.30;;;;;;;8.69;97.26;97703.23;218255;1257;140533;-70
2023/10/27 03:23:19;;;;;;;11.60;7.60;;;;;;;8.68;97.42;97700.05;218068;1257;142303;-75
2023/10/27 03:28:25;;;;;;;10.90;7.70;;;;;;;8.68;97.33;97697.23;218475;1257;140163;-71
2023/10/27 03:33:30;;;;;;;19.30;9.80;;;;;;;8.71;97.60;97701.96;218381;1262;141394;-69
2023/10/27 03:38:35;;;;;;;9.40;8.30;;;;;;;8.75;97.66;97701.67;218744;1257;141231;-69
2023/10/27 03:43:40;;;;;;;7.80;6.70;;;;;;;8.81;97.82;97704.16;220047;1257;140290;-70
2023/10/27 03:48:44;;;;;;;9.00;7.10;;;;;;;8.86;97.85;97705.55;219649;1257;140672;-70
2023/10/27 03:53:48;;;;;;;11.90;8.60;;;;;;;8.93;97.91;97710.41;220218;1257;140151;-70
2023/10/27 03:58:53;;;;;;;10.70;7.70;;;;;;;8.97;97.76;97710.48;218258;1261;140350;-68
2023/10/27 04:03:57;;;;;;;10.20;6.60;;;;;;;9.01;97.66;97714.84;219842;1257;142139;-69
2023/10/27 04:09:02;;;;;;;11.70;8.90;;;;;;;9.04;97.65;97710.83;217665;1263;139949;-69
2023/10/27 04:14:06;;;;;;;8.30;7.30;;;;;;;9.07;97.70;97710.23;217970;1257;140694;-69
2023/10/27 04:19:11;;;;;;;10.70;7.80;;;;;;;9.09;97.64;97715.34;218399;1257;141087;-69
2023/10/27 04:24:19;;;;;;;9.80;6.90;;;;;;;9.08;97.70;97717.79;218240;1257;141337;-70
2023/10/27 04:29:24;;;;;;;9.30;8.20;;;;;;;9.07;97.46;97722.46;217851;1257;140404;-70
2023/10/27 04:34:29;;;;;;;9.80;8.10;;;;;;;9.04;97.30;97724.39;218064;1258;141138;-70
2023/10/27 04:39:33;;;;;;;12.60;8.60;;;;;;;8.97;97.26;97722.02;217609;1257;140215;-68
2023/10/27 04:44:38;;;;;;;12.70;8.40;;;;;;;8.92;97.12;97718.16;217423;1262;140926;-71
2023/10/27 04:49:43;;;;;;;8.70;6.90;;;;;;;8.87;97.34;97713.67;218760;1257;141778;-70
2023/10/27 04:54:48;;;;;;;12.30;8.10;;;;;;;8.83;97.21;97713.33;218341;1260;140275;-73
2023/10/27 04:59:56;;;;;;;9.50;8.00;;;;;;;8.84;97.41;97711.84;218089;1259;140046;-71
2023/10/27 05:05:01;;;;;;;11.60;9.90;;;;;;;8.82;97.41;97716.79;219144;1257;142119;-71
2023/10/27 05:10:07;;;;;;;15.60;10.20;;;;;;;8.85;97.42;97709.23;217949;1257;140618;-72
2023/10/27 05:15:13;;;;;;;13.40;10.20;;;;;;;8.88;97.40;97710.58;218711;1257;140773;-72
2023/10/27 05:20:18;;;;;;;10.20;8.30;;;;;;;8.88;97.34;97717.34;218340;1260;140358;-71
2023/10/27 05:25:22;;;;;;;13.90;11.00;;;;;;;8.84;96.95;97716.63;217868;1257;142186;-72
2023/10/27 05:30:27;;;;;;;19.00;12.10;;;;;;;8.84;97.27;97720.29;217538;1258;140528;-73
2023/10/27 05:35:32;;;;;;;12.80;11.20;;;;;;;8.87;97.49;97727.76;218970;1257;141166;-72
2023/10/27 05:40:37;;;;;;;16.10;10.70;;;;;;;8.90;97.61;97731.67;218512;1257;141121;-72
2023/10/27 05:45:42;;;;;;;15.50;11.10;;;;;;;8.93;97.35;97732.51;218840;1257;140294;-71
2023/10/27 05:50:47;;;;;;;13.40;11.10;;;;;;;8.95;97.12;97729.63;219554;1257;141830;-73
2023/10/27 05:55:51;;;;;;;13.40;11.20;;;;;;;8.94;96.86;97733.88;220121;1259;140318;-74
2023/10/27 06:00:57;;;;;;;10.30;8.10;;;;;;;8.92;96.43;97741.55;218066;1262;142423;-73
2023/10/27 06:06:03;;;;;;;11.10;9.40;;;;;;;8.89;96.53;97744.10;217616;1260;142508;-71
2023/10/27 06:11:07;;;;;;;11.90;10.60;;;;;;;8.85;96.61;97738.94;217988;1259;141495;-67
2023/10/27 06:16:10;;;;;;;10.40;9.10;;;;;;;8.86;96.72;97734.15;217729;1262;140429;-69
2023/10/27 06:21:14;;;;;;;12.20;9.60;;;;;;;8.88;96.96;97732.05;218147;1259;141083;-68
2023/10/27 06:26:20;;;;;;;13.00;9.60;;;;;;;8.95;97.26;97725.80;218360;1260;139570;-68
2023/10/27 06:31:26;;;;;;;12.60;9.80;;;;;;;9.07;97.61;97726.98;218412;1259;139908;-70
2023/10/27 06:36:32;;;;;;;14.90;9.00;;;;;;;9.31;98.06;97721.84;218165;1259;140173;-71
2023/10/27 06:41:37;;;;;;;9.00;7.10;;;;;;;9.58;98.30;97714.32;217829;1260;141022;-68
2023/10/27 06:46:41;;;;;;;11.60;9.70;;;;;;;9.83;98.02;97711.10;217495;1262;140863;-69
2023/10/27 06:51:47;;;;;;;10.60;9.10;;;;;;;10.15;98.22;97713.06;217603;1260;140580;-69
2023/10/27 06:56:54;;;;;;;9.30;7.60;;;;;;;10.89;98.51;97713.69;217572;1259;140041;-68
2023/10/27 07:01:59;;;;;;;13.60;9.80;;;;;;;11.89;97.90;97716.38;218120;1259;140473;-70
2023/10/27 07:07:05;;;;;;;10.30;7.40;;;;;;;12.62;96.72;97719.27;218028;1262;140379;-69
2023/10/27 07:12:30;;;;;;;8.00;7.20;;;;;;;13.21;95.32;97718.48;218808;1258;140769;-70
2023/10/27 07:17:34;;;;;;;9.00;7.00;;;;;;;13.51;93.61;97709.98;218200;1259;140220;-69
2023/10/27 07:22:39;;;;;;;7.10;6.30;;;;;;;13.74;92.99;97707.89;218737;1262;140256;-71
2023/10/27 07:27:45;;;;;;;6.90;6.20;;;;;;;13.80;91.36;97710.56;217607;1259;141261;-71
2023/10/27 07:32:49;;;;;;;6.70;5.90;;;;;;;13.72;90.65;97721.94;217351;1259;143333;-70
2023/10/27 07:37:53;;;;;;;6.80;6.20;;;;;;;13.57;90.06;97721.23;217994;1259;140557;-70
2023/10/27 07:42:58;;;;;;;6.10;5.30;;;;;;;13.39;89.28;97726.95;219046;1259;140251;-74
2023/10/27 07:48:03;;;;;;;5.50;4.90;;;;;;;13.18;88.51;97723.22;218632;1259;141253;-70
2023/10/27 07:53:09;;;;;;;6.40;5.70;;;;;;;12.93;87.95;97716.89;218615;1258;141829;-72
2023/10/27 07:58:14;;;;;;;8.00;6.00;;;;;;;12.90;88.53;97715.29;218396;1259;140801;-71
2023/10/27 08:03:21;;;;;;;8.90;6.10;;;;;;;12.90;88.26;97721.55;220173;1259;141091;-70
2023/10/27 08:08:25;;;;;;;;;;;;;;;12.91;88.49;97716.91;218728;1257;141451;-70
2023/10/27 08:13:30;;;;;;;6.10;5.40;;;;;;;12.90;88.17;97715.61;218989;1258;126767;-69
2023/10/27 08:18:34;;;;;;;5.10;4.60;;;;;;;12.80;87.50;97712.86;218746;1257;140528;-68
2023/10/27 08:23:39;;;;;;;8.60;6.20;;;;;;;12.56;86.55;97709.54;218737;1257;140158;-69
2023/10/27 08:28:44;;;;;;;8.20;6.00;;;;;;;12.54;87.41;97709.58;218415;1257;140897;-70
2023/10/27 08:33:49;;;;;;;9.30;6.70;;;;;;;12.58;87.60;97708.16;217403;1258;144742;-70
2023/10/27 08:38:54;;;;;;;7.90;7.10;;;;;;;12.65;87.93;97701.20;217546;1259;140409;-70
2023/10/27 08:44:00;;;;;;;7.40;6.60;;;;;;;12.76;87.89;97694.73;218008;1259;140606;-70
2023/10/27 08:49:25;;;;;;;8.00;6.80;;;;;;;12.85;87.60;97678.81;217579;1258;141190;-69
2023/10/27 08:54:31;;;;;;;7.60;6.80;;;;;;;12.90;87.37;97675.81;217627;1258;139993;-69
2023/10/27 08:59:36;;;;;;;8.30;7.50;;;;;;;12.98;87.02;97680.99;217363;1261;141438;-70
2023/10/27 09:04:44;;;;;;;7.70;6.20;;;;;;;13.03;86.85;97678.38;217509;1259;141025;-69
2023/10/27 09:09:48;;;;;;;8.70;6.80;;;;;;;13.04;86.76;97680.92;217541;1258;140651;-69
2023/10/27 09:15:06;;;;;;;5.00;4.60;;;;;;;13.08;86.76;97677.02;218331;1257;139965;-69
2023/10/27 09:20:11;;;;;;;7.40;6.70;;;;;;;13.05;85.74;97674.64;217866;1257;140807;-69
2023/10/27 09:25:17;;;;;;;5.80;5.10;;;;;;;13.06;86.32;97674.73;217651;1257;140508;-70
2023/10/27 09:30:30;;;;;;;5.80;5.10;;;;;;;13.11;85.70;97686.45;218549;1258;141365;-70
2023/10/27 09:35:35;;;;;;;8.20;6.10;;;;;;;13.07;85.13;97690.70;218449;1259;140971;-69
2023/10/27 09:40:41;;;;;;;10.30;5.80;;;;;;;13.07;85.26;97690.27;218851;1257;140265;-69
2023/10/27 09:46:02;;;;;;;9.10;5.90;;;;;;;13.11;84.94;97686.13;219778;1258;141808;-69
2023/10/27 09:51:17;;;;;;;7.60;5.80;;;;;;;13.18;84.97;97680.48;220043;1258;140626;-69
2023/10/27 09:56:22;;;;;;;9.10;5.70;;;;;;;13.23;84.32;97678.45;217899;1261;140449;-68
2023/10/27 10:01:28;;;;;;;5.00;4.40;;;;;;;13.26;83.98;97674.95;218772;1257;246046;-72
2023/10/27 10:06:35;;;;;;;7.20;6.30;;;;;;;13.14;82.98;97669.42;217803;1257;141529;-70
2023/10/27 10:11:55;;;;;;;7.00;5.40;;;;;;;13.14;83.83;97669.05;219467;1257;232000;-72
2023/10/27 10:17:00;;;;;;;7.80;5.10;;;;;;;13.14;83.59;97662.52;218006;1257;140027;-72
2023/10/27 10:22:06;;;;;;;6.60;5.80;;;;;;;13.08;83.20;97659.55;217650;1258;151958;-72
2023/10/27 10:27:12;;;;;;;6.00;4.90;;;;;;;13.16;83.31;97661.26;218258;1258;139950;-70
2023/10/27 10:32:34;;;;;;;6.30;4.90;;;;;;;13.22;83.43;97665.03;217638;1257;141402;-70
2023/10/27 10:37:38;;;;;;;5.10;4.50;;;;;;;13.36;83.37;97650.92;217943;1257;141181;-70
2023/10/27 10:43:20;;;;;;;6.20;5.60;;;;;;;13.32;82.57;97645.82;217673;1260;141036;-71
2023/10/27 10:48:32;;;;;;;8.30;5.60;;;;;;;13.38;82.96;97630.92;217951;1261;140615;-71
2023/10/27 10:53:38;;;;;;;5.20;4.20;;;;;;;13.48;83.07;97617.70;217467;1261;140214;-71
2023/10/27 10:58:43;;;;;;;14.90;5.00;;;;;;;13.55;82.39;97616.20;218293;1259;139988;-72
2023/10/27 11:03:50;;;;;;;5.50;4.70;;;;;;;13.60;82.30;97611.23;217764;1257;140692;-68
2023/10/27 11:08:55;;;;;;;4.20;3.80;;;;;;;13.69;82.31;97612.42;217942;1261;142264;-72
2023/10/27 11:14:00;;;;;;;6.20;5.20;;;;;;;13.79;82.11;97608.08;217824;1259;140150;-73
2023/10/27 11:19:18;;;;;;;6.70;6.00;;;;;;;13.84;81.83;97607.33;217975;1257;140127;-68
2023/10/27 11:24:23;;;;;;;7.20;6.40;;;;;;;13.73;81.26;97606.73;217961;1257;140550;-69
2023/10/27 11:29:29;;;;;;;6.80;5.90;;;;;;;13.55;80.92;97601.11;217777;1257;141065;-69
2023/10/27 11:34:34;;;;;;;8.30;6.60;;;;;;;13.37;80.93;97595.17;218269;1257;140110;-69
2023/10/27 11:39:41;;;;;;;7.60;6.70;;;;;;;13.23;81.16;97593.52;219099;1257;140889;-71
2023/10/27 11:44:45;;;;;;;8.60;7.00;;;;;;;13.13;81.18;97597.98;217731;1261;139926;-68
2023/10/27 11:49:50;;;;;;;8.50;7.20;;;;;;;13.08;81.34;97595.09;218705;1257;140807;-72
2023/10/27 11:54:55;;;;;;;9.40;7.00;;;;;;;13.03;81.51;97587.28;219466;1258;140697;-70
2023/10/27 11:59:59;;;;;;;10.90;7.20;;;;;;;13.01;81.68;97587.08;218590;1259;141968;-69
2023/10/27 12:05:04;;;;;;;15.20;9.40;;;;;;;12.93;81.43;97582.00;218084;1257;222378;-69
2023/10/27 12:10:13;;;;;;;7.90;7.10;;;;;;;12.93;81.82;97578.03;217914;1260;143121;-68
2023/10/27 12:15:20;;;;;;;9.70;8.40;;;;;;;12.93;81.62;97573.98;218086;1258;140021;-68
2023/10/27 12:20:27;;;;;;;12.90;10.00;;;;;;;12.95;81.82;97569.88;217750;1258;140552;-69
2023/10/27 12:25:32;;;;;;;13.30;9.90;;;;;;;12.96;81.54;97562.14;217748;1257;140540;-68
2023/10/27 12:30:37;;;;;;;10.90;7.10;;;;;;;12.89;81.50;97561.33;218379;1257;141158;-68
2023/10/27 12:35:42;;;;;;;8.10;6.10;;;;;;;12.81;80.88;97565.26;217664;1259;140347;-70
2023/10/27 12:40:49;;;;;;;9.40;6.80;;;;;;;12.73;81.00;97562.17;218061;1257;139718;-68
2023/10/27 12:45:54;;;;;;;6.30;4.90;;;;;;;12.74;81.25;97554.98;217386;1258;140734;-68
2023/10/27 12:51:00;;;;;;;6.70;4.90;;;;;;;12.71;80.99;97549.05;217967;1257;140418;-70
2023/10/27 12:56:07;;;;;;;5.50;3.80;;;;;;;12.63;80.63;97550.26;217777;1261;140650;-71
2023/10/27 13:01:12;;;;;;;6.10;5.30;;;;;;;12.56;80.57;97556.57;217582;1257;140532;-70
2023/10/27 13:06:18;;;;;;;6.00;3.90;;;;;;;12.54;80.71;97559.29;218038;1260;142575;-70
2023/10/27 13:11:23;;;;;;;5.10;4.50;;;;;;;12.48;80.88;97563.52;217722;1259;143568;-70
2023/10/27 13:16:29;;;;;;;8.30;5.50;;;;;;;12.49;81.10;97567.52;217651;1261;141566;-71
2023/10/27 13:21:35;;;;;;;6.20;5.40;;;;;;;12.52;81.34;97566.14;218160;1261;141502;-73
2023/10/27 13:26:41;;;;;;;6.30;4.60;;;;;;;12.51;81.46;97564.49;218265;1259;140219;-69
2023/10/27 13:31:47;;;;;;;6.50;5.50;;;;;;;12.45;81.38;97562.64;217379;1259;141231;-69
2023/10/27 13:36:56;;;;;;;6.50;5.50;;;;;;;12.40;81.59;97562.15;219876;1257;141167;-71
2023/10/27 13:42:01;;;;;;;9.50;5.80;;;;;;;12.31;81.46;97559.60;218930;1259;141029;-70
2023/10/27 13:47:07;;;;;;;6.40;5.60;;;;;;;12.22;81.78;97558.72;218549;1261;140346;-72
2023/10/27 13:52:11;;;;;;;12.50;7.40;;;;;;;12.17;81.73;97553.02;219188;1260;140834;-71
2023/10/27 13:57:19;;;;;;;11.90;6.90;;;;;;;12.12;82.06;97548.94;218971;1259;208936;-76
2023/10/27 14:02:26;;;;;;;6.80;5.90;;;;;;;12.08;82.23;97550.94;217683;1261;140932;-74
2023/10/27 14:07:34;;;;;;;6.30;5.10;;;;;;;12.04;82.19;97549.19;218391;1257;140177;-74
2023/10/27 14:12:41;;;;;;;7.30;5.60;;;;;;;11.98;82.25;97549.05;218314;1259;141241;-72
2023/10/27 14:17:48;;;;;;;8.80;6.10;;;;;;;11.90;82.34;97547.08;216321;1258;1271259;-71
2023/10/27 14:22:58;;;;;;;5.40;4.80;;;;;;;11.82;82.45;97539.92;217665;1258;141137;-72
2023/10/27 14:28:10;;;;;;;6.30;4.80;;;;;;;11.75;82.69;97540.83;217867;1261;140269;-71
2023/10/27 14:33:17;;;;;;;6.50;5.20;;;;;;;11.70;82.66;97542.34;218555;1258;140440;-73
2023/10/27 14:38:23;;;;;;;8.30;5.50;;;;;;;11.66;82.79;97541.06;218345;1259;140502;-72
2023/10/27 14:43:30;;;;;;;;;;;;;;;11.62;83.32;97538.16;218026;1261;142273;-73
2023/10/27 14:48:38;;;;;;;7.90;7.10;;;;;;;11.56;83.47;97537.96;218631;1260;127258;-71
2023/10/27 14:53:43;;;;;;;14.60;8.60;;;;;;;11.50;83.75;97537.70;217802;1259;139710;-72
2023/10/27 14:58:52;;;;;;;9.40;7.00;;;;;;;11.45;84.22;97542.46;217242;1259;142132;-69
2023/10/27 15:03:58;;;;;;;12.10;7.70;;;;;;;11.40;84.23;97547.45;218459;1259;142482;-73
2023/10/27 15:09:04;;;;;;;14.30;9.30;;;;;;;11.35;84.17;97544.07;217865;1261;141189;-72
2023/10/27 15:14:09;;;;;;;9.60;7.80;;;;;;;11.29;84.27;97544.63;218208;1260;140316;-73
2023/10/27 15:19:17;;;;;;;15.00;9.30;;;;;;;11.23;84.68;97547.59;217681;1261;140668;-72
2023/10/27 15:24:24;;;;;;;20.40;12.70;;;;;;;11.20;84.91;97547.38;218221;1261;140624;-70
2023/10/27 15:29:29;;;;;;;43.70;23.00;;;;;;;11.18;84.88;97550.98;217556;1259;140275;-69
2023/10/27 15:34:34;;;;;;;57.90;29.80;;;;;;;11.14;85.22;97562.56;217109;1259;140768;-72
2023/10/27 15:39:39;;;;;;;24.90;12.80;;;;;;;11.08;85.19;97564.39;218414;1262;141753;-74
2023/10/27 15:44:44;;;;;;;16.60;11.80;;;;;;;11.03;85.17;97570.71;217747;1257;141078;-72
2023/10/27 15:49:50;;;;;;;12.90;10.90;;;;;;;11.02;85.51;97572.83;217881;1259;140331;-73
2023/10/27 15:54:56;;;;;;;18.60;9.70;;;;;;;10.98;85.62;97578.70;218156;1259;140325;-68
2023/10/27 16:00:01;;;;;;;16.50;10.70;;;;;;;10.91;85.75;97587.44;217473;1260;140552;-72
2023/10/27 16:05:07;;;;;;;15.70;12.20;;;;;;;10.85;85.94;97596.05;219065;1259;140285;-74
2023/10/27 16:10:12;;;;;;;17.20;12.20;;;;;;;10.82;86.16;97593.21;217805;1259;142646;-76
2023/10/27 16:15:19;;;;;;;15.80;11.40;;;;;;;10.81;86.40;97594.25;217501;1262;140382;-72
2023/10/27 16:20:28;;;;;;;17.80;12.20;;;;;;;10.78;86.74;97593.05;218000;1261;140329;-69
2023/10/27 16:25:36;;;;;;;20.90;12.20;;;;;;;10.76;86.73;97592.77;217415;1262;140679;-71
2023/10/27 16:30:45;;;;;;;18.80;10.50;;;;;;;10.72;86.86;97601.23;217437;1260;141025;-70
2023/10/27 16:35:51;;;;;;;17.40;11.40;;;;;;;10.68;87.02;97604.67;218102;1260;141352;-71
2023/10/27 16:40:58;;;;;;;18.60;11.30;;;;;;;10.65;87.24;97603.37;217506;1259;142064;-72
2023/10/27 16:46:09;;;;;;;17.60;11.70;;;;;;;10.62;87.31;97609.33;217438;1259;140673;-71
2023/10/27 16:51:18;;;;;;;18.00;11.30;;;;;;;10.58;87.62;97615.88;218050;1259;140562;-73
2023/10/27 16:56:23;;;;;;;21.30;12.90;;;;;;;10.59;87.77;97618.58;217706;1260;140675;-73
2023/10/27 17:01:29;;;;;;;15.50;10.40;;;;;;;10.59;88.12;97618.63;217910;1259;140650;-73
2023/10/27 17:06:35;;;;;;;16.40;11.10;;;;;;;10.58;88.11;97622.86;217794;1259;141288;-70
2023/10/27 17:11:40;;;;;;;21.30;10.90;;;;;;;10.56;88.08;97623.84;217760;1260;142294;-71
2023/10/27 17:16:46;;;;;;;16.90;9.50;;;;;;;10.54;88.34;97624.81;218583;1258;140017;-70
2023/10/27 17:21:52;;;;;;;16.50;9.60;;;;;;;10.53;88.37;97623.60;218970;1259;140349;-68
2023/10/27 17:26:58;;;;;;;14.30;9.60;;;;;;;10.53;88.50;97623.19;217398;1257;140357;-69
2023/10/27 17:32:04;;;;;;;21.80;12.40;;;;;;;10.52;88.65;97622.13;219274;1259;140858;-72
2023/10/27 17:37:09;;;;;;;19.10;11.90;;;;;;;10.51;88.68;97619.85;219483;1260;140458;-71
2023/10/27 17:42:15;;;;;;;23.30;12.40;;;;;;;10.49;88.95;97622.21;218933;1260;141188;-71
2023/10/27 17:47:22;;;;;;;;;;;;;;;10.50;89.13;97628.17;218694;1261;140270;-71
2023/10/27 17:52:29;;;;;;;19.00;13.00;;;;;;;10.48;89.34;97629.14;218415;1260;128302;-72
2023/10/27 17:57:34;;;;;;;17.00;11.30;;;;;;;10.50;89.56;97633.18;219417;1260;141247;-71
2023/10/27 18:02:38;;;;;;;13.90;9.70;;;;;;;10.49;89.39;97635.80;219670;1260;140478;-77
2023/10/27 18:07:47;;;;;;;12.00;9.90;;;;;;;10.45;89.32;97640.52;218563;1261;140132;-69
2023/10/27 18:12:54;;;;;;;14.60;8.80;;;;;;;10.40;89.33;97638.78;218420;1260;141281;-71
2023/10/27 18:17:59;;;;;;;14.80;10.30;;;;;;;10.37;89.48;97641.06;219179;1259;142185;-71
2023/10/27 18:23:05;;;;;;;14.70;9.70;;;;;;;10.33;89.52;97639.88;218231;1262;140763;-72
2023/10/27 18:28:12;;;;;;;13.90;10.00;;;;;;;10.27;89.40;97641.44;218156;1257;141327;-72
2023/10/27 18:33:17;;;;;;;15.00;8.90;;;;;;;10.19;89.48;97642.79;218371;1260;141556;-72
2023/10/27 18:38:22;;;;;;;13.90;9.80;;;;;;;10.14;89.77;97652.72;217975;1259;140799;-71
2023/10/27 18:43:26;;;;;;;12.70;9.00;;;;;;;10.11;89.80;97657.55;218235;1257;140134;-72
2023/10/27 18:48:31;;;;;;;13.10;9.20;;;;;;;10.09;90.06;97654.01;218599;1261;140164;-70
2023/10/27 18:53:36;;;;;;;19.60;10.70;;;;;;;10.06;90.25;97659.38;217431;1257;141059;-71
2023/10/27 18:58:45;;;;;;;17.30;10.70;;;;;;;10.01;90.28;97660.59;218240;1261;140401;-71
2023/10/27 19:03:51;;;;;;;17.40;10.80;;;;;;;9.98;90.41;97666.73;218006;1262;140624;-71
2023/10/27 19:08:57;;;;;;;19.40;11.40;;;;;;;9.95;90.53;97673.48;218132;1262;140697;-70
2023/10/27 19:14:05;;;;;;;21.40;12.20;;;;;;;9.91;90.64;97678.67;218276;1262;140862;-70
2023/10/27 19:19:11;;;;;;;21.30;12.80;;;;;;;9.87;90.81;97682.52;218083;1261;141341;-71
2023/10/27 19:24:17;;;;;;;18.30;11.60;;;;;;;9.83;90.82;97689.95;219051;1262;140887;-71
2023/10/27 19:29:23;;;;;;;17.90;12.20;;;;;;;9.79;90.79;97697.14;218467;1261;140818;-71
2023/10/27 19:34:29;;;;;;;23.10;13.20;;;;;;;9.73;90.54;97701.29;218122;1262;141352;-72
2023/10/27 19:39:35;;;;;;;17.50;13.30;;;;;;;9.66;90.66;97707.88;218706;1262;142481;-73
2023/10/27 19:44:39;;;;;;;24.30;14.10;;;;;;;9.61;90.86;97712.02;218798;1259;140612;-70
2023/10/27 19:49:48;;;;;;;19.00;11.60;;;;;;;9.58;90.94;97716.02;218293;1262;140779;-71
2023/10/27 19:54:53;;;;;;;24.10;13.50;;;;;;;9.53;90.94;97714.62;217435;1262;141715;-72
2023/10/27 19:59:59;;;;;;;18.60;11.60;;;;;;;9.47;90.94;97724.46;218168;1262;140875;-72
2023/10/27 20:05:04;;;;;;;;;;;;;;;9.45;91.40;97729.05;218466;1261;140809;-71
2023/10/27 20:10:09;;;;;;;20.20;12.10;;;;;;;9.41;91.45;97733.11;218681;1259;126273;-71
2023/10/27 20:15:14;;;;;;;20.70;12.20;;;;;;;9.39;91.40;97737.27;217702;1258;140353;-71
2023/10/27 20:20:26;;;;;;;20.40;13.30;;;;;;;9.37;91.58;97737.92;217421;1263;141957;-71
2023/10/27 20:25:34;;;;;;;19.80;10.50;;;;;;;9.33;91.52;97743.36;217822;1262;140447;-72
2023/10/27 20:30:38;;;;;;;17.10;11.70;;;;;;;9.29;91.62;97747.11;218413;1260;140241;-73
2023/10/27 20:35:43;;;;;;;15.70;10.20;;;;;;;9.26;91.66;97757.39;217869;1260;141877;-71
2023/10/27 20:40:48;;;;;;;16.20;11.00;;;;;;;9.24;91.82;97761.54;217649;1262;143063;-72
2023/10/27 20:45:54;;;;;;;16.80;11.20;;;;;;;9.22;91.88;97765.13;217757;1261;140281;-70
2023/10/27 20:51:03;;;;;;;17.30;10.50;;;;;;;9.20;91.87;97766.56;218307;1262;140066;-70
2023/10/27 20:56:07;;;;;;;14.70;9.40;;;;;;;9.20;92.06;97771.77;217875;1263;141099;-69
2023/10/27 21:01:16;;;;;;;16.50;9.90;;;;;;;9.18;92.01;97775.46;217739;1263;140088;-73
2023/10/27 21:06:22;;;;;;;13.00;9.00;;;;;;;9.17;92.08;97783.17;217804;1262;141583;-71
2023/10/27 21:11:26;;;;;;;17.80;9.90;;;;;;;9.13;91.98;97788.20;218286;1262;140295;-71
2023/10/27 21:16:29;;;;;;;13.00;7.50;;;;;;;9.08;91.98;97796.67;217446;1260;140115;-71
2023/10/27 21:21:34;;;;;;;12.10;8.00;;;;;;;9.03;91.93;97799.97;218320;1260;140208;-72
2023/10/27 21:26:42;;;;;;;15.80;8.40;;;;;;;9.00;92.08;97807.47;218364;1261;141001;-70
2023/10/27 21:31:49;;;;;;;14.00;8.40;;;;;;;8.97;92.08;97813.44;218320;1259;140422;-70
2023/10/27 21:36:53;;;;;;;11.60;7.00;;;;;;;8.95;92.21;97816.79;218459;1261;140399;-70
2023/10/27 21:41:57;;;;;;;11.50;7.90;;;;;;;8.95;92.19;97820.23;219568;1261;141239;-70
2023/10/27 21:47:01;;;;;;;13.20;8.10;;;;;;;8.94;92.07;97825.73;218936;1259;140946;-70
2023/10/27 21:52:07;;;;;;;12.40;7.90;;;;;;;8.90;92.02;97824.88;217558;1258;140992;-70
2023/10/27 21:57:15;;;;;;;11.40;7.60;;;;;;;8.87;92.02;97830.79;218891;1260;139956;-70
2023/10/27 22:02:19;;;;;;;13.50;8.50;;;;;;;8.87;92.16;97841.22;218501;1260;140593;-69
2023/10/27 22:07:22;;;;;;;10.60;8.60;;;;;;;8.85;92.27;97849.04;218318;1260;140188;-69
2023/10/27 22:12:27;;;;;;;10.80;7.70;;;;;;;8.83;92.21;97849.05;218416;1260;141095;-68
2023/10/27 22:17:32;;;;;;;8.10;6.30;;;;;;;8.81;92.25;97849.05;217747;1261;139923;-69
2023/10/27 22:22:37;;;;;;;11.50;9.00;;;;;;;8.77;92.05;97856.23;217865;1260;140970;-72
2023/10/27 22:27:41;;;;;;;10.50;7.10;;;;;;;8.72;92.22;97857.61;218226;1260;140036;-68
2023/10/27 22:32:48;;;;;;;13.60;8.20;;;;;;;8.70;92.27;97857.98;219191;1260;140187;-74
2023/10/27 22:37:52;;;;;;;11.20;8.10;;;;;;;8.69;92.50;97862.13;217332;1260;141134;-69
2023/10/27 22:43:01;;;;;;;15.40;9.40;;;;;;;8.68;92.42;97868.55;217584;1262;141142;-68
2023/10/27 22:48:06;;;;;;;13.20;10.20;;;;;;;8.68;92.66;97880.13;217615;1261;140400;-71
2023/10/27 22:53:11;;;;;;;15.50;10.60;;;;;;;8.68;92.65;97880.35;218369;1260;140518;-71
2023/10/27 22:58:14;;;;;;;10.70;7.90;;;;;;;8.65;92.43;97879.34;218428;1260;140123;-71
2023/10/27 23:03:18;;;;;;;15.10;9.10;;;;;;;8.59;92.51;97886.83;218403;1262;140067;-69
2023/10/27 23:08:23;;;;;;;10.70;7.40;;;;;;;8.56;92.57;97890.03;218624;1259;140190;-69
2023/10/27 23:13:29;;;;;;;10.80;8.80;;;;;;;8.53;92.63;97894.23;218108;1259;141736;-69
2023/10/27 23:18:43;;;;;;;16.60;8.70;;;;;;;8.51;92.51;97892.69;218426;1262;140435;-68
2023/10/27 23:23:47;;;;;;;11.80;8.10;;;;;;;8.48;92.56;97899.11;217609;1260;139832;-71
2023/10/27 23:28:53;;;;;;;13.50;9.70;;;;;;;8.47;92.83;97903.95;218195;1262;140216;-72